Time;durP1;ratioP1;P1;durP2;ratioP2;P2;SDS_P1;SDS_P2;PMS_P1;PMS_P2;Temp;Humidity;BMP_temperature;BMP_pressure;BME280_temperature;BME280_humidity;BME280_pressure;Samples;Min_cycle;Max_cycle;Signal;HPM_P1;HPM_P2
2023/06/02 00:01:21;;;;;;;12.07;3.60;;;15.60;99.90;;;;;;5080202;28;20729;-80
2023/06/02 00:03:48;;;;;;;10.50;3.23;;;15.70;99.90;;;;;;5067565;28;20692;-80
2023/06/02 00:06:15;;;;;;;12.67;3.20;;;15.30;99.90;;;;;;5067571;28;20211;-80
2023/06/02 00:08:43;;;;;;;13.27;3.00;;;15.30;99.90;;;;;;5053405;28;20243;-80
2023/06/02 00:11:12;;;;;;;8.33;3.10;;;15.20;99.90;;;;;;5048169;28;20208;-80
2023/06/02 00:13:39;;;;;;;14.20;3.10;;;15.30;99.90;;;;;;5047648;28;20208;-80
2023/06/02 00:16:07;;;;;;;10.70;2.63;;;15.30;99.90;;;;;;5047377;28;20208;-80
2023/06/02 00:18:36;;;;;;;9.97;3.17;;;15.10;99.90;;;;;;5059379;28;20290;-80
2023/06/02 00:21:04;;;;;;;8.50;3.30;;;15.30;99.90;;;;;;5067286;28;20303;-80
2023/06/02 00:23:32;;;;;;;9.13;3.40;;;15.20;99.90;;;;;;5066752;28;20238;-81
2023/06/02 00:26:01;;;;;;;12.30;3.20;;;15.20;99.90;;;;;;5067265;28;20214;-80
2023/06/02 00:28:29;;;;;;;10.90;3.53;;;15.30;99.90;;;;;;5067472;28;20234;-80
2023/06/02 00:30:56;;;;;;;8.93;2.77;;;15.40;99.90;;;;;;5066848;28;20984;-81
2023/06/02 00:33:23;;;;;;;12.67;3.57;;;15.30;99.90;;;;;;5051136;28;20208;-81
2023/06/02 00:35:50;;;;;;;12.73;3.50;;;14.90;99.90;;;;;;5050971;28;20247;-81
2023/06/02 00:38:17;;;;;;;9.40;3.23;;;14.80;99.90;;;;;;5066759;28;20204;-81
2023/06/02 00:40:44;;;;;;;12.43;3.87;;;14.50;99.90;;;;;;5066948;28;20597;-80
2023/06/02 00:43:12;;;;;;;10.90;2.93;;;14.60;99.90;;;;;;5053627;28;20240;-80
2023/06/02 00:45:39;;;;;;;8.33;3.00;;;14.50;99.90;;;;;;5046834;28;20218;-80
2023/06/02 00:48:07;;;;;;;7.83;3.00;;;14.70;99.90;;;;;;5047187;28;20575;-80
2023/06/02 00:50:35;;;;;;;13.23;2.80;;;14.80;99.90;;;;;;5047080;28;20212;-80
2023/06/02 00:53:02;;;;;;;10.33;3.03;;;14.90;99.90;;;;;;5047489;28;20266;-80
2023/06/02 00:55:30;;;;;;;11.73;4.03;;;14.90;99.90;;;;;;5046447;28;20271;-80
2023/06/02 00:57:58;;;;;;;11.07;3.10;;;14.80;99.90;;;;;;5064815;28;20202;-77
2023/06/02 01:00:27;;;;;;;5.53;2.57;;;14.90;99.90;;;;;;5080650;28;20242;-77
2023/06/02 01:02:57;;;;;;;12.33;3.30;;;14.90;99.90;;;;;;5075890;28;20211;-77
2023/06/02 01:05:24;;;;;;;10.67;2.87;;;14.90;99.90;;;;;;5065752;28;20227;-77
2023/06/02 01:07:58;;;;;;;12.40;3.57;;;14.90;99.90;;;;;;5066203;28;20307;-77
2023/06/02 01:10:26;;;;;;;12.47;3.30;;;14.70;99.90;;;;;;5063039;28;20242;-76
2023/06/02 01:12:54;;;;;;;10.80;3.50;;;14.60;99.90;;;;;;5046188;28;20299;-74
2023/06/02 01:15:21;;;;;;;8.20;3.33;;;14.70;99.90;;;;;;5046119;28;20243;-77
2023/06/02 01:17:51;;;;;;;12.17;2.97;;;14.50;99.90;;;;;;5046470;28;20273;-77
2023/06/02 01:20:21;;;;;;;9.90;3.57;;;14.60;99.90;;;;;;5049293;28;20208;-77
2023/06/02 01:22:57;;;;;;;14.03;3.77;;;14.60;99.90;;;;;;5066062;28;20200;-78
2023/06/02 01:25:27;;;;;;;9.00;3.23;;;14.60;99.90;;;;;;5066545;28;20227;-79
2023/06/02 01:27:57;;;;;;;11.87;3.50;;;14.60;99.90;;;;;;5066523;28;20283;-79
2023/06/02 01:30:25;;;;;;;13.27;3.17;;;14.40;99.90;;;;;;5065226;28;20200;-80
2023/06/02 01:33:05;;;;;;;9.77;3.17;;;13.90;99.90;;;;;;5065373;28;20212;-80
2023/06/02 01:35:36;;;;;;;10.07;3.13;;;13.70;99.90;;;;;;5065732;28;20211;-80
2023/06/02 01:38:05;;;;;;;9.67;2.87;;;13.80;99.90;;;;;;5065876;28;20295;-80
2023/06/02 01:40:35;;;;;;;9.43;3.53;;;13.90;99.90;;;;;;5065494;28;20357;-80
2023/06/02 01:43:03;;;;;;;14.80;3.30;;;14.10;99.90;;;;;;5065487;28;20243;-80
2023/06/02 01:45:32;;;;;;;10.43;3.53;;;14.00;99.90;;;;;;5065485;28;20438;-80
2023/06/02 01:48:04;;;;;;;8.03;3.40;;;14.00;99.90;;;;;;5065980;28;20302;-81
2023/06/02 01:50:31;;;;;;;8.60;2.83;;;13.90;99.90;;;;;;5058408;28;20670;-81
2023/06/02 01:52:58;;;;;;;15.00;3.40;;;13.90;99.90;;;;;;5049724;28;20212;-81
2023/06/02 01:55:25;;;;;;;7.80;3.43;;;14.00;99.90;;;;;;5057651;28;20218;-81
2023/06/02 01:57:53;;;;;;;10.13;3.57;;;13.80;99.90;;;;;;5065627;28;20756;-81
2023/06/02 02:00:21;;;;;;;10.70;3.63;;;13.80;99.90;;;;;;5065994;28;20215;-81
2023/06/02 02:02:48;;;;;;;11.27;3.23;;;14.00;99.90;;;;;;5065786;28;20200;-81
2023/06/02 02:05:15;;;;;;;10.13;3.43;;;13.70;99.90;;;;;;5065984;28;20330;-81
2023/06/02 02:07:43;;;;;;;14.10;3.43;;;13.80;99.90;;;;;;5065816;28;20843;-81
2023/06/02 02:10:11;;;;;;;14.97;3.83;;;13.70;99.90;;;;;;5065495;28;20214;-81
2023/06/02 02:12:38;;;;;;;9.10;3.30;;;13.60;99.90;;;;;;5063312;28;21135;-82
2023/06/02 02:15:09;;;;;;;12.10;3.40;;;13.80;99.90;;;;;;5062457;28;20699;-81
2023/06/02 02:17:44;;;;;;;13.17;3.33;;;13.80;99.90;;;;;;5069283;28;20203;-75
2023/06/02 02:20:13;;;;;;;9.73;3.50;;;13.70;99.90;;;;;;5064699;28;20245;-74
2023/06/02 02:22:40;;;;;;;8.97;3.13;;;13.70;99.90;;;;;;5053456;28;20208;-80
2023/06/02 02:25:08;;;;;;;12.10;3.37;;;13.70;99.90;;;;;;5068854;28;20334;-80
2023/06/02 02:27:35;;;;;;;9.20;3.03;;;13.70;99.90;;;;;;5069030;28;20207;-80
2023/06/02 02:30:03;;;;;;;10.90;3.43;;;13.80;99.90;;;;;;5067032;28;20215;-79
2023/06/02 02:32:33;;;;;;;10.57;3.10;;;13.80;99.90;;;;;;5067893;28;20230;-80
2023/06/02 02:35:00;;;;;;;7.60;2.73;;;13.80;99.90;;;;;;5048148;28;20208;-79
2023/06/02 02:37:28;;;;;;;12.80;3.60;;;13.60;99.90;;;;;;5048155;28;20315;-79
2023/06/02 02:39:55;;;;;;;10.20;3.50;;;13.60;99.90;;;;;;5048121;28;20223;-79
2023/06/02 02:42:22;;;;;;;8.47;3.20;;;13.30;99.90;;;;;;5047358;28;20252;-79
2023/06/02 02:44:49;;;;;;;11.63;3.00;;;13.40;99.90;;;;;;5047359;28;20290;-79
2023/06/02 02:47:16;;;;;;;11.33;3.70;;;13.50;99.90;;;;;;5047284;28;20299;-79
2023/06/02 02:49:44;;;;;;;10.33;2.90;;;13.50;99.90;;;;;;5047362;28;20235;-79
2023/06/02 02:52:11;;;;;;;9.77;3.20;;;13.50;99.90;;;;;;5063217;28;20304;-80
2023/06/02 02:54:38;;;;;;;15.27;3.23;;;13.50;99.90;;;;;;5067174;28;20278;-79
2023/06/02 02:57:07;;;;;;;13.53;3.50;;;13.50;99.90;;;;;;5067244;28;20294;-79
2023/06/02 02:59:34;;;;;;;13.83;3.20;;;13.50;99.90;;;;;;5066742;28;20272;-80
2023/06/02 03:02:01;;;;;;;7.67;3.10;;;13.40;99.90;;;;;;5065887;28;20795;-80
2023/06/02 03:04:28;;;;;;;7.10;3.00;;;13.40;99.90;;;;;;5050847;28;20258;-80
2023/06/02 03:06:57;;;;;;;11.40;3.53;;;13.40;99.90;;;;;;5049085;28;20322;-80
2023/06/02 03:09:24;;;;;;;10.37;3.10;;;13.10;99.90;;;;;;5060152;28;20227;-78
2023/06/02 03:11:51;;;;;;;10.70;3.20;;;12.90;99.90;;;;;;5052752;28;20220;-78
2023/06/02 03:14:18;;;;;;;9.50;3.50;;;13.10;99.90;;;;;;5062352;28;20638;-79
2023/06/02 03:16:45;;;;;;;10.20;3.20;;;13.00;99.90;;;;;;5067949;28;20899;-78
2023/06/02 03:19:13;;;;;;;12.13;3.47;;;12.90;99.90;;;;;;5068661;28;20207;-78
2023/06/02 03:21:42;;;;;;;13.43;3.23;;;12.90;99.90;;;;;;5068553;28;20212;-78
2023/06/02 03:24:14;;;;;;;12.90;3.67;;;13.10;99.90;;;;;;5068486;28;20657;-79
2023/06/02 03:26:45;;;;;;;11.00;3.80;;;13.20;99.90;;;;;;5067440;28;20286;-78
2023/06/02 03:29:13;;;;;;;11.13;3.57;;;13.00;99.90;;;;;;5068410;28;20203;-78
2023/06/02 03:31:41;;;;;;;14.33;3.73;;;12.90;99.90;;;;;;5068145;28;20238;-79
2023/06/02 03:34:08;;;;;;;15.57;3.07;;;12.90;99.90;;;;;;5068234;28;20203;-78
2023/06/02 03:36:36;;;;;;;10.10;3.40;;;13.00;99.90;;;;;;5067916;28;20756;-78
2023/06/02 03:39:06;;;;;;;13.03;3.00;;;13.10;99.90;;;;;;5068420;28;20207;-78
2023/06/02 03:41:36;;;;;;;17.87;3.17;;;13.10;99.90;;;;;;5067743;28;20248;-78
2023/06/02 03:44:03;;;;;;;15.17;3.73;;;13.20;99.90;;;;;;5068363;28;20207;-78
2023/06/02 03:46:30;;;;;;;11.93;3.20;;;13.20;99.90;;;;;;5075408;28;20236;-78
2023/06/02 03:48:57;;;;;;;11.70;3.30;;;13.20;99.90;;;;;;5068225;28;20432;-80
2023/06/02 03:51:24;;;;;;;9.53;3.20;;;13.20;99.90;;;;;;5067964;28;20274;-78
2023/06/02 03:53:51;;;;;;;12.00;3.43;;;13.20;99.90;;;;;;5067877;28;20606;-80
2023/06/02 03:56:19;;;;;;;12.07;3.40;;;13.30;99.90;;;;;;5067865;28;20609;-78
2023/06/02 03:58:47;;;;;;;16.97;3.73;;;12.80;99.90;;;;;;5067668;28;20225;-78
2023/06/02 04:01:16;;;;;;;11.87;3.17;;;12.70;99.90;;;;;;5067242;28;20618;-78
2023/06/02 04:03:43;;;;;;;8.17;3.70;;;13.00;99.90;;;;;;5067819;28;20314;-78
2023/06/02 04:06:10;;;;;;;9.30;4.00;;;12.80;99.90;;;;;;5067766;28;20231;-78
2023/06/02 04:08:37;;;;;;;8.57;3.17;;;12.90;99.90;;;;;;5067482;28;20782;-79
2023/06/02 04:11:04;;;;;;;13.87;3.57;;;12.70;99.90;;;;;;5067441;28;20298;-79
2023/06/02 04:13:31;;;;;;;12.37;3.40;;;12.70;99.90;;;;;;5067432;28;20238;-79
2023/06/02 04:16:00;;;;;;;9.27;3.10;;;12.80;99.90;;;;;;5067598;28;20238;-79
2023/06/02 04:18:28;;;;;;;13.67;4.27;;;12.80;99.90;;;;;;5067076;28;20716;-79
2023/06/02 04:20:55;;;;;;;8.63;3.47;;;13.00;99.90;;;;;;5066975;28;20800;-79
2023/06/02 04:23:22;;;;;;;17.90;3.60;;;13.10;99.90;;;;;;5067158;28;20227;-78
2023/06/02 04:25:49;;;;;;;15.20;3.87;;;13.10;99.90;;;;;;5066826;28;20234;-79
2023/06/02 04:28:16;;;;;;;11.83;4.10;;;12.80;99.90;;;;;;5067117;28;20307;-79
2023/06/02 04:30:43;;;;;;;13.33;3.73;;;12.80;99.90;;;;;;5083965;28;20240;-78
2023/06/02 04:33:13;;;;;;;9.47;3.67;;;12.40;99.90;;;;;;5087721;28;20207;-78
2023/06/02 04:35:39;;;;;;;11.07;3.30;;;12.50;99.90;;;;;;5079617;28;20211;-78
2023/06/02 04:38:09;;;;;;;8.73;3.57;;;12.40;99.90;;;;;;5066925;28;20812;-79
2023/06/02 04:40:37;;;;;;;13.83;3.90;;;12.10;99.90;;;;;;5066726;28;20306;-78
2023/06/02 04:43:04;;;;;;;10.97;4.10;;;12.10;99.90;;;;;;5063965;28;21015;-78
2023/06/02 04:45:31;;;;;;;14.50;4.30;;;12.30;99.90;;;;;;5046555;28;20330;-78
2023/06/02 04:47:58;;;;;;;13.97;3.83;;;12.30;99.90;;;;;;5047095;28;20603;-79
2023/06/02 04:50:27;;;;;;;12.10;3.60;;;12.40;99.90;;;;;;5047178;28;20559;-78
2023/06/02 04:52:54;;;;;;;10.60;3.53;;;12.50;99.90;;;;;;5046868;28;20670;-78
2023/06/02 04:55:21;;;;;;;11.10;3.70;;;12.60;99.90;;;;;;5046958;28;20837;-78
2023/06/02 04:57:48;;;;;;;12.97;3.90;;;12.80;99.90;;;;;;5046216;28;20306;-78
2023/06/02 05:00:15;;;;;;;15.93;3.77;;;12.60;99.90;;;;;;5072074;28;20721;-78
2023/06/02 05:02:42;;;;;;;11.27;3.57;;;12.80;99.90;;;;;;5069830;28;20579;-78
2023/06/02 05:05:10;;;;;;;18.20;4.77;;;12.80;99.90;;;;;;5066307;28;20615;-78
2023/06/02 05:07:38;;;;;;;10.97;4.33;;;12.80;99.90;;;;;;5062683;28;20282;-78
2023/06/02 05:10:06;;;;;;;18.23;4.37;;;12.60;99.90;;;;;;5064103;28;20628;-78
2023/06/02 05:12:33;;;;;;;12.90;4.33;;;12.60;99.90;;;;;;5066355;28;20281;-78
2023/06/02 05:15:00;;;;;;;16.10;4.50;;;12.80;99.90;;;;;;5066299;28;20215;-78
2023/06/02 05:17:28;;;;;;;17.43;4.30;;;12.90;99.90;;;;;;5066189;28;20294;-78
2023/06/02 05:19:55;;;;;;;11.07;3.53;;;13.10;99.90;;;;;;5066219;28;20219;-78
2023/06/02 05:22:22;;;;;;;11.57;4.20;;;13.30;99.90;;;;;;5066013;28;20302;-78
2023/06/02 05:24:50;;;;;;;10.13;3.40;;;13.40;99.90;;;;;;5046844;28;20208;-78
2023/06/02 05:27:17;;;;;;;12.77;3.93;;;13.50;99.90;;;;;;5046253;28;20231;-78
2023/06/02 05:29:44;;;;;;;14.70;4.10;;;13.70;99.90;;;;;;5054314;28;20207;-78
2023/06/02 05:32:12;;;;;;;13.20;3.97;;;13.70;99.90;;;;;;5065669;28;20253;-78
2023/06/02 05:34:39;;;;;;;15.23;4.17;;;13.60;99.90;;;;;;5065986;28;20212;-79
2023/06/02 05:37:06;;;;;;;11.00;3.63;;;13.50;99.90;;;;;;5065869;28;20218;-78
2023/06/02 05:39:33;;;;;;;15.40;4.23;;;13.40;99.90;;;;;;5073586;28;20199;-78
2023/06/02 05:42:01;;;;;;;8.17;3.53;;;13.50;99.90;;;;;;5065721;28;20239;-78
2023/06/02 05:44:28;;;;;;;13.70;4.33;;;13.60;99.90;;;;;;5066633;28;20242;-78
2023/06/02 05:46:55;;;;;;;12.10;3.97;;;13.80;99.90;;;;;;5066195;28;20665;-78
2023/06/02 05:49:22;;;;;;;16.90;3.93;;;13.80;99.90;;;;;;5065810;28;20296;-78
2023/06/02 05:51:49;;;;;;;10.63;4.03;;;14.00;99.90;;;;;;5065792;28;20226;-79
2023/06/02 05:54:16;;;;;;;14.93;4.07;;;13.80;99.90;;;;;;5065964;28;20235;-78
2023/06/02 05:56:43;;;;;;;12.57;3.47;;;13.70;99.90;;;;;;5066036;28;20234;-79
2023/06/02 05:59:11;;;;;;;25.83;5.20;;;13.70;99.90;;;;;;5066312;28;20204;-78
2023/06/02 06:01:38;;;;;;;18.60;3.97;;;13.90;99.90;;;;;;5065453;28;20249;-78
2023/06/02 06:04:05;;;;;;;13.17;3.70;;;13.90;99.90;;;;;;5065817;28;20719;-78
2023/06/02 06:06:32;;;;;;;16.80;3.80;;;14.10;99.90;;;;;;5065323;28;20321;-78
2023/06/02 06:08:59;;;;;;;10.40;3.90;;;14.10;99.90;;;;;;5065677;28;20309;-78
2023/06/02 06:11:26;;;;;;;15.43;3.97;;;14.20;99.90;;;;;;5065757;28;20235;-78
2023/06/02 06:13:53;;;;;;;16.83;4.03;;;14.20;99.90;;;;;;5058122;28;20297;-78
2023/06/02 06:16:21;;;;;;;10.50;3.60;;;14.20;99.90;;;;;;5045454;28;20223;-78
2023/06/02 06:18:48;;;;;;;10.23;3.30;;;14.40;99.90;;;;;;5045538;28;20216;-78
2023/06/02 06:21:15;;;;;;;14.37;4.10;;;14.40;99.90;;;;;;5045601;28;20212;-78
2023/06/02 06:23:42;;;;;;;11.93;4.07;;;14.30;99.90;;;;;;5044859;28;20252;-79
2023/06/02 06:26:09;;;;;;;15.03;4.23;;;14.20;99.90;;;;;;5045728;28;20227;-78
2023/06/02 06:28:36;;;;;;;18.13;4.40;;;14.20;99.90;;;;;;5045238;28;20210;-78
2023/06/02 06:31:03;;;;;;;12.50;4.80;;;14.10;99.90;;;;;;5064874;28;20251;-78
2023/06/02 06:33:31;;;;;;;12.97;3.63;;;14.10;99.90;;;;;;5065442;28;20290;-78
2023/06/02 06:35:58;;;;;;;17.03;4.03;;;14.30;99.90;;;;;;5064980;28;20298;-80
2023/06/02 06:38:25;;;;;;;17.80;4.30;;;14.30;99.90;;;;;;5065720;28;20206;-78
2023/06/02 06:40:52;;;;;;;14.10;4.40;;;14.30;99.90;;;;;;5064844;28;20745;-78
2023/06/02 06:43:19;;;;;;;12.60;4.30;;;14.30;99.90;;;;;;5064835;28;20235;-78
2023/06/02 06:45:46;;;;;;;15.27;4.90;;;14.30;99.90;;;;;;5064747;28;20326;-78
2023/06/02 06:48:12;;;;;;;13.13;4.13;;;14.20;99.90;;;;;;5065037;28;20749;-78
2023/06/02 06:50:41;;;;;;;82.60;10.93;;;14.30;99.90;;;;;;5065219;28;20298;-78
2023/06/02 06:53:09;;;;;;;16.27;4.47;;;14.20;99.90;;;;;;5064835;28;20322;-78
2023/06/02 06:55:36;;;;;;;16.77;4.10;;;14.30;99.90;;;;;;5064794;28;20856;-77
2023/06/02 06:58:03;;;;;;;14.53;4.13;;;14.30;99.90;;;;;;5064986;28;20212;-78
2023/06/02 07:00:31;;;;;;;11.50;3.90;;;14.50;99.90;;;;;;5064605;28;20239;-78
2023/06/02 07:02:57;;;;;;;25.20;4.90;;;14.50;99.90;;;;;;5066858;28;20291;-78
2023/06/02 07:05:24;;;;;;;13.03;4.17;;;14.80;99.90;;;;;;5068376;28;20208;-78
2023/06/02 07:07:53;;;;;;;15.57;4.53;;;14.90;99.90;;;;;;5068690;28;20267;-78
2023/06/02 07:10:20;;;;;;;12.80;4.10;;;15.00;99.90;;;;;;5068828;28;20290;-78
2023/06/02 07:12:47;;;;;;;14.50;4.70;;;15.20;99.90;;;;;;5068550;28;20227;-78
2023/06/02 07:15:14;;;;;;;14.07;4.87;;;15.20;99.90;;;;;;5068566;28;20204;-78
2023/06/02 07:17:41;;;;;;;16.30;4.60;;;15.10;99.90;;;;;;5068459;28;20208;-78
2023/06/02 07:20:09;;;;;;;15.73;4.80;;;15.20;99.90;;;;;;5068445;28;20406;-77
2023/06/02 07:22:37;;;;;;;10.03;4.17;;;15.10;99.90;;;;;;5067853;28;20789;-78
2023/06/02 07:25:06;;;;;;;15.57;4.80;;;15.10;99.90;;;;;;5068608;28;20268;-77
2023/06/02 07:27:33;;;;;;;14.67;4.63;;;15.20;99.90;;;;;;5068275;28;20731;-79
2023/06/02 07:30:01;;;;;;;12.40;4.40;;;15.40;99.90;;;;;;5079259;28;20257;-78
2023/06/02 07:32:27;;;;;;;9.83;4.77;;;15.40;99.90;;;;;;5079953;28;20243;-78
2023/06/02 07:34:54;;;;;;;12.93;4.77;;;15.50;99.90;;;;;;5068290;28;20219;-78
2023/06/02 07:37:21;;;;;;;9.33;4.83;;;15.40;99.90;;;;;;5067858;28;20657;-77
2023/06/02 07:39:48;;;;;;;12.73;4.70;;;15.60;99.90;;;;;;5067909;28;20247;-78
2023/06/02 07:42:17;;;;;;;14.93;5.23;;;15.60;99.90;;;;;;5067662;28;20326;-77
2023/06/02 07:44:43;;;;;;;13.67;4.73;;;15.70;99.90;;;;;;5067244;28;20234;-77
2023/06/02 07:47:11;;;;;;;14.73;5.30;;;15.80;99.90;;;;;;5067668;28;20331;-78
2023/06/02 07:49:38;;;;;;;26.90;6.50;;;16.00;99.90;;;;;;5068048;28;20207;-78
2023/06/02 07:52:05;;;;;;;30.63;6.33;;;16.10;99.90;;;;;;5068287;28;20318;-77
2023/06/02 07:54:32;;;;;;;95.93;12.63;;;16.30;99.90;;;;;;5067961;28;20640;-77
2023/06/02 07:56:59;;;;;;;17.17;4.97;;;16.30;99.90;;;;;;5068327;28;20390;-77
2023/06/02 07:59:28;;;;;;;9.03;4.00;;;16.40;99.90;;;;;;5068047;28;20307;-77
2023/06/02 08:01:55;;;;;;;11.47;4.27;;;16.50;99.90;;;;;;5067651;28;20747;-77
2023/06/02 08:04:25;;;;;;;15.50;4.23;;;16.50;99.90;;;;;;5067502;28;20731;-77
2023/06/02 08:06:54;;;;;;;9.13;3.77;;;16.50;99.90;;;;;;5067610;28;20338;-77
2023/06/02 08:09:22;;;;;;;8.77;4.60;;;16.60;99.90;;;;;;5067841;28;20208;-77
2023/06/02 08:11:49;;;;;;;8.67;4.33;;;16.60;99.90;;;;;;5067393;28;20296;-77
2023/06/02 08:14:16;;;;;;;10.80;4.17;;;16.60;99.90;;;;;;5067311;28;20294;-77
2023/06/02 08:16:45;;;;;;;11.60;4.50;;;16.60;99.90;;;;;;5066727;28;20216;-77
2023/06/02 08:19:12;;;;;;;10.90;4.17;;;16.60;99.90;;;;;;5067158;28;20252;-77
2023/06/02 08:21:40;;;;;;;12.33;4.00;;;16.50;99.90;;;;;;5067164;28;20617;-77
2023/06/02 08:24:07;;;;;;;10.20;3.20;;;16.50;99.90;;;;;;5053933;28;20251;-77
2023/06/02 08:26:39;;;;;;;9.77;4.30;;;16.50;99.90;;;;;;5046793;28;20237;-77
2023/06/02 08:29:08;;;;;;;14.63;4.27;;;16.50;99.90;;;;;;5075071;28;20218;-77
2023/06/02 08:31:35;;;;;;;11.77;4.30;;;16.30;99.90;;;;;;5066963;28;20214;-78
2023/06/02 08:34:04;;;;;;;7.77;3.30;;;16.40;99.90;;;;;;5067097;28;20317;-77
2023/06/02 08:36:32;;;;;;;8.30;3.80;;;16.40;99.90;;;;;;5067125;28;20294;-78
2023/06/02 08:39:05;;;;;;;6.97;3.37;;;16.50;99.90;;;;;;5067095;28;20208;-77
2023/06/02 08:41:37;;;;;;;8.20;3.57;;;16.60;99.90;;;;;;5067124;28;20239;-77
2023/06/02 08:44:04;;;;;;;14.83;3.80;;;16.80;99.90;;;;;;5066978;28;20295;-78
2023/06/02 08:46:31;;;;;;;6.10;3.20;;;16.90;99.90;;;;;;5066348;28;20231;-78
2023/06/02 08:49:00;;;;;;;8.13;3.20;;;17.10;99.90;;;;;;5066917;28;20238;-77
2023/06/02 08:51:32;;;;;;;9.27;3.50;;;17.30;99.90;;;;;;5066826;28;20215;-77
2023/06/02 08:53:59;;;;;;;7.20;3.20;;;17.40;99.90;;;;;;5066930;28;20231;-77
2023/06/02 08:56:26;;;;;;;6.47;2.67;;;17.60;99.90;;;;;;5066961;28;20243;-77
2023/06/02 08:58:53;;;;;;;46.33;5.20;;;17.70;99.90;;;;;;5066966;28;20203;-78
2023/06/02 09:01:20;;;;;;;21.93;4.40;;;17.80;99.90;;;;;;5066556;28;20290;-78
2023/06/02 09:03:48;;;;;;;10.13;2.83;;;17.80;99.90;;;;;;5066809;28;20302;-78
2023/06/02 09:06:22;;;;;;;36.83;4.70;;;17.80;99.90;;;;;;5066627;28;20266;-77
2023/06/02 09:08:58;;;;;;;8.63;2.60;;;17.70;99.90;;;;;;5066761;28;20729;-78
2023/06/02 09:11:26;;;;;;;5.27;2.40;;;17.70;99.90;;;;;;5066577;28;20206;-77
2023/06/02 09:13:55;;;;;;;5.73;2.50;;;17.70;99.90;;;;;;5066759;28;20207;-77
2023/06/02 09:16:22;;;;;;;4.30;2.33;;;17.60;99.90;;;;;;5066189;28;20211;-77
2023/06/02 09:18:57;;;;;;;4.80;2.10;;;17.60;99.90;;;;;;5066527;28;20792;-77
2023/06/02 09:21:27;;;;;;;3.07;2.13;;;17.60;99.90;;;;;;5066594;28;20195;-77
2023/06/02 09:23:56;;;;;;;3.03;2.33;;;17.60;99.90;;;;;;5073735;28;20223;-78
2023/06/02 09:26:25;;;;;;;7.63;2.43;;;17.50;99.90;;;;;;5066203;28;20231;-78
2023/06/02 09:29:18;;;;;;;3.03;1.90;;;17.50;99.90;;;;;;5067772;28;20203;-78
2023/06/02 09:31:46;;;;;;;6.70;1.80;;;17.70;99.90;;;;;;5071538;28;20242;-78
2023/06/02 09:34:14;;;;;;;3.57;1.63;;;17.80;99.90;;;;;;5086409;28;20237;-77
2023/06/02 09:36:41;;;;;;;1.93;1.30;;;18.00;99.90;;;;;;5086300;28;20290;-78
2023/06/02 09:39:10;;;;;;;1.60;1.50;;;18.10;99.90;;;;;;5086532;28;20285;-77
2023/06/02 09:41:39;;;;;;;6.77;1.43;;;18.20;99.90;;;;;;5086011;28;20247;-78
2023/06/02 09:44:14;;;;;;;3.40;1.47;;;18.30;97.40;;;;;;5068857;28;20316;-78
2023/06/02 09:46:43;;;;;;;2.50;1.20;;;18.40;97.60;;;;;;5065291;28;20222;-79
2023/06/02 09:49:11;;;;;;;6.40;1.60;;;18.50;97.10;;;;;;5065769;28;20300;-77
2023/06/02 09:51:38;;;;;;;2.23;1.50;;;18.60;96.40;;;;;;5065811;28;20657;-77
2023/06/02 09:54:06;;;;;;;1.20;1.10;;;18.70;96.30;;;;;;5066091;28;20207;-78
2023/06/02 09:56:36;;;;;;;4.07;1.30;;;18.80;95.70;;;;;;5065852;28;20208;-78
2023/06/02 09:59:05;;;;;;;3.57;1.50;;;18.80;95.20;;;;;;5069146;28;20213;-78
2023/06/02 10:01:32;;;;;;;3.93;1.27;;;18.90;95.30;;;;;;5086054;28;20214;-78
2023/06/02 10:03:59;;;;;;;2.27;1.30;;;18.80;95.20;;;;;;5086432;28;20210;-78
2023/06/02 10:06:46;;;;;;;3.60;1.47;;;18.90;95.30;;;;;;5086067;28;20209;-79
2023/06/02 10:09:33;;;;;;;3.63;1.40;;;19.00;94.40;;;;;;5086364;28;20238;-79
2023/06/02 10:12:17;;;;;;;1.77;1.60;;;19.10;93.60;;;;;;5086395;28;20709;-78
2023/06/02 10:15:10;;;;;;;4.53;1.63;;;19.30;92.80;;;;;;5086112;28;20278;-78
2023/06/02 10:17:48;;;;;;;5.90;1.70;;;19.50;91.70;;;;;;5085975;28;20291;-78
2023/06/02 10:20:27;;;;;;;2.00;1.43;;;19.70;91.70;;;;;;5085887;28;20263;-78
2023/06/02 10:23:29;;;;;;;6.97;2.10;;;19.80;91.30;;;;;;5065160;28;20297;-78
2023/06/02 10:26:16;;;;;;;4.23;1.50;;;19.80;91.10;;;;;;5029341;28;20631;-78
2023/06/02 10:28:45;;;;;;;6.77;1.30;;;19.70;90.20;;;;;;5065055;28;20749;-78
2023/06/02 10:31:13;;;;;;;2.72;1.45;;;19.70;90.40;;;;;;5065311;28;20213;-78
2023/06/02 10:33:44;;;;;;;4.83;1.40;;;19.80;90.70;;;;;;5065136;28;20261;-78
2023/06/02 10:36:13;;;;;;;4.00;1.30;;;19.90;89.70;;;;;;5066285;28;20670;-78
2023/06/02 10:38:40;;;;;;;1.87;1.57;;;20.00;90.00;;;;;;5069639;28;20310;-78
2023/06/02 10:41:07;;;;;;;2.80;1.33;;;20.20;90.30;;;;;;5069292;28;20298;-77
2023/06/02 10:43:35;;;;;;;3.07;1.53;;;20.40;90.30;;;;;;5069743;28;20199;-78
2023/06/02 10:46:20;;;;;;;2.58;1.52;;;20.50;89.00;;;;;;5069608;28;20208;-79
2023/06/02 10:48:47;;;;;;;6.63;1.70;;;20.70;88.60;;;;;;5069504;28;20203;-79
2023/06/02 10:51:14;;;;;;;3.80;1.08;;;20.70;88.20;;;;;;5069541;28;20215;-77
2023/06/02 10:54:15;;;;;;;3.08;1.50;;;20.80;88.70;;;;;;5069121;28;20243;-78
2023/06/02 10:56:44;;;;;;;1.50;1.15;;;20.90;88.30;;;;;;5049986;28;20312;-78
2023/06/02 10:59:30;;;;;;;2.17;0.95;;;20.90;88.90;;;;;;5069034;28;20207;-78
2023/06/02 11:01:58;;;;;;;4.50;1.80;;;21.00;89.00;;;;;;5069146;28;20290;-78
2023/06/02 11:04:31;;;;;;;2.05;1.27;;;21.20;89.80;;;;;;5068543;28;20208;-78
2023/06/02 11:07:21;;;;;;;7.35;1.48;;;21.30;89.80;;;;;;5068434;28;20231;-78
2023/06/02 11:09:51;;;;;;;5.82;1.50;;;21.20;88.80;;;;;;5068931;28;20214;-77
2023/06/02 11:12:18;;;;;;;3.10;1.52;;;21.30;89.30;;;;;;5068582;28;20246;-77
2023/06/02 11:15:22;;;;;;;2.65;1.40;;;21.40;89.20;;;;;;5068789;28;20239;-78
2023/06/02 11:17:50;;;;;;;4.72;1.40;;;21.50;87.80;;;;;;5077002;28;20219;-77
2023/06/02 11:20:18;;;;;;;3.85;1.55;;;21.30;87.10;;;;;;5069145;28;20627;-78
2023/06/02 11:22:46;;;;;;;9.40;2.47;;;21.20;87.40;;;;;;5068854;28;20318;-78
2023/06/02 11:25:15;;;;;;;7.50;1.50;;;21.10;88.10;;;;;;5069076;28;20222;-78
2023/06/02 11:27:44;;;;;;;3.13;1.40;;;21.10;88.80;;;;;;5069096;28;20246;-77
2023/06/02 11:30:14;;;;;;;10.65;2.30;;;21.30;89.00;;;;;;5068479;28;20242;-78
2023/06/02 11:32:41;;;;;;;2.67;1.40;;;21.70;90.00;;;;;;5068444;28;20212;-78
2023/06/02 11:35:11;;;;;;;1.98;1.30;;;22.00;87.90;;;;;;5068238;28;20239;-78
2023/06/02 11:37:40;;;;;;;2.17;1.23;;;22.30;88.40;;;;;;5068770;28;20306;-78
2023/06/02 11:40:09;;;;;;;1.80;1.50;;;22.60;86.60;;;;;;5068081;28;20932;-78
2023/06/02 11:42:38;;;;;;;3.90;1.70;;;22.90;87.30;;;;;;5067879;28;20239;-77
2023/06/02 11:45:07;;;;;;;2.03;1.20;;;23.20;87.10;;;;;;5068168;28;20230;-77
2023/06/02 11:47:34;;;;;;;6.40;1.38;;;23.30;87.20;;;;;;5067234;28;20227;-78
2023/06/02 11:50:01;;;;;;;1.30;1.20;;;23.20;84.00;;;;;;5068095;28;20796;-78
2023/06/02 11:52:36;;;;;;;2.70;1.20;;;22.90;84.00;;;;;;5068798;28;20208;-78
2023/06/02 11:55:04;;;;;;;2.10;1.52;;;22.70;84.20;;;;;;5068105;28;20202;-78
2023/06/02 11:57:32;;;;;;;10.95;2.25;;;22.50;84.20;;;;;;5068134;28;20304;-78
2023/06/02 12:00:10;;;;;;;6.78;1.70;;;22.20;84.50;;;;;;5067806;28;20298;-77
2023/06/02 12:02:39;;;;;;;8.23;1.60;;;22.00;85.60;;;;;;5067429;28;20664;-78
2023/06/02 12:05:08;;;;;;;2.83;1.30;;;21.90;86.10;;;;;;5068115;28;20234;-78
2023/06/02 12:07:37;;;;;;;2.30;1.60;;;21.90;86.20;;;;;;5067735;28;20227;-78
2023/06/02 12:10:05;;;;;;;3.95;1.20;;;21.90;85.70;;;;;;5067885;28;20298;-77
2023/06/02 12:12:32;;;;;;;3.30;1.55;;;22.00;85.50;;;;;;5067736;28;20258;-79
2023/06/02 12:14:59;;;;;;;2.95;1.17;;;21.90;85.50;;;;;;5067366;28;20427;-78
2023/06/02 12:17:26;;;;;;;4.55;1.42;;;22.00;86.00;;;;;;5068008;28;20280;-78
2023/06/02 12:19:57;;;;;;;4.90;1.40;;;22.00;84.60;;;;;;5067459;28;20294;-78
2023/06/02 12:22:24;;;;;;;2.55;1.25;;;22.00;84.70;;;;;;5067277;28;20230;-78
2023/06/02 12:24:52;;;;;;;2.03;1.13;;;21.90;82.10;;;;;;5066930;28;21015;-78
2023/06/02 12:27:23;;;;;;;1.65;1.20;;;22.00;82.20;;;;;;5067635;28;20349;-78
2023/06/02 12:29:50;;;;;;;11.80;2.45;;;22.30;81.30;;;;;;5076862;28;20293;-77
2023/06/02 12:32:26;;;;;;;3.85;1.33;;;22.60;80.00;;;;;;5087487;28;20203;-77
2023/06/02 12:34:53;;;;;;;2.70;1.50;;;23.00;78.40;;;;;;5087468;28;20205;-78
2023/06/02 12:37:20;;;;;;;8.38;1.92;;;23.40;77.10;;;;;;5069089;28;20301;-77
2023/06/02 12:39:47;;;;;;;2.65;1.02;;;23.70;75.20;;;;;;5066748;28;20673;-78
2023/06/02 12:42:18;;;;;;;10.95;1.90;;;23.70;73.90;;;;;;5066682;28;20246;-78
2023/06/02 12:44:46;;;;;;;2.63;1.15;;;24.10;74.00;;;;;;5066814;28;20299;-77
2023/06/02 12:47:13;;;;;;;18.90;2.80;;;24.30;73.40;;;;;;5066748;28;20210;-76
2023/06/02 12:49:40;;;;;;;5.18;1.30;;;24.50;71.90;;;;;;5067077;28;20203;-75